createdAt,value
2022-11-27T00:02:01.542Z,101691.22
2022-11-27T00:04:49.155Z,101693.75
2022-11-27T00:07:36.906Z,101695.47
2022-11-27T00:10:24.554Z,101697.19
2022-11-27T00:13:12.292Z,101691.31
2022-11-27T00:16:00.013Z,101692.16
2022-11-27T00:18:48.511Z,101695.56
2022-11-27T00:21:36.858Z,101700.63
2022-11-27T00:24:24.575Z,101691.38
2022-11-27T00:27:12.173Z,101698.88
2022-11-27T00:29:59.839Z,101699.69
2022-11-27T00:32:47.447Z,101697.13
2022-11-27T00:35:35.067Z,101701.34
2022-11-27T00:38:22.907Z,101703.88
2022-11-27T00:41:22.933Z,101709.72
2022-11-27T00:44:12.256Z,101698.75
2022-11-27T00:46:59.878Z,101704.59
2022-11-27T00:49:47.565Z,101698.63
2022-11-27T00:52:35.304Z,101690.16
2022-11-27T00:55:22.975Z,101692.63
2022-11-27T00:58:10.580Z,101693.50
2022-11-27T01:01:07.225Z,101695.16
2022-11-27T01:03:55.250Z,101698.50
2022-11-27T01:06:44.196Z,101699.31
2022-11-27T01:09:31.840Z,101696.75
2022-11-27T01:12:19.403Z,101698.50
2022-11-27T01:15:07.526Z,101693.50
2022-11-27T01:17:55.173Z,101701.97
2022-11-27T01:20:42.799Z,101690.19
2022-11-27T01:23:31.176Z,101689.31
2022-11-27T01:26:19.218Z,101684.22
2022-11-27T01:29:07.117Z,101683.34
2022-11-27T01:31:54.722Z,101685.84
2022-11-27T01:34:42.534Z,101693.44
2022-11-27T01:37:30.221Z,101695.03
2022-11-27T01:40:17.918Z,101690.78
2022-11-27T01:43:06.409Z,101693.22
2022-11-27T01:45:54.062Z,101689.88
2022-11-27T01:48:41.713Z,101692.53
2022-11-27T01:51:31.140Z,101688.34
2022-11-27T01:54:21.310Z,101691.69
2022-11-27T01:57:15.475Z,101697.53
2022-11-27T02:00:05.797Z,101697.53
2022-11-27T02:03:00.858Z,101693.28
2022-11-27T02:05:48.474Z,101695.72
2022-11-27T02:08:36.058Z,101693.19
2022-11-27T02:11:29.891Z,101692.31
2022-11-27T02:14:42.056Z,101695.69
2022-11-27T02:17:54.852Z,101694.81
2022-11-27T02:20:58.766Z,101698.09
2022-11-27T02:24:11.974Z,101703.06
2022-11-27T02:27:08.834Z,101703.06
2022-11-27T02:30:00.765Z,101703.88
2022-11-27T02:32:59.349Z,101706.38
2022-11-27T02:35:50.233Z,101702.22
2022-11-27T02:39:17.727Z,101708.97
2022-11-27T02:42:15.663Z,101714.88
2022-11-27T02:45:09.755Z,101710.66
2022-11-27T02:47:58.512Z,101708.97
2022-11-27T02:50:48.631Z,101720.00
2022-11-27T02:53:43.092Z,101719.16
2022-11-27T02:56:32.680Z,101715.72
2022-11-27T02:59:22.019Z,101706.38
2022-11-27T03:02:15.528Z,101722.34
2022-11-27T03:05:08.902Z,101721.47
2022-11-27T03:08:19.855Z,101718.06
2022-11-27T03:11:10.968Z,101714.63
2022-11-27T03:14:05.926Z,101725.63
2022-11-27T03:17:06.925Z,101712.91
2022-11-27T03:20:03.918Z,101721.41
2022-11-27T03:22:56.240Z,101718.06
2022-11-27T03:25:43.868Z,101720.59
2022-11-27T03:28:32.699Z,101723.06
2022-11-27T03:31:21.367Z,101726.41
2022-11-27T03:34:09.261Z,101724.59
2022-11-27T03:36:56.873Z,101721.19
2022-11-27T03:39:44.801Z,101724.56
2022-11-27T03:42:59.212Z,101716.03
2022-11-27T03:46:01.186Z,101713.50
2022-11-27T03:49:09.311Z,101710.91
2022-11-27T03:52:22.319Z,101707.41
2022-11-27T03:55:34.499Z,101703.94
2022-11-27T03:58:27.958Z,101709.88
2022-11-27T04:01:19.692Z,101715.81
2022-11-27T04:04:07.496Z,101708.91
2022-11-27T04:06:55.112Z,101710.47
2022-11-27T04:09:42.694Z,101716.22
2022-11-27T04:12:30.307Z,101714.41
2022-11-27T04:15:17.954Z,101711.16
2022-11-27T04:18:05.807Z,101706.06
2022-11-27T04:20:53.530Z,101711.97
2022-11-27T04:23:41.215Z,101711.91
2022-11-27T04:26:28.854Z,101712.69
2022-11-27T04:29:16.520Z,101715.13
2022-11-27T04:32:05.293Z,101712.44
2022-11-27T04:34:52.844Z,101723.44
2022-11-27T04:37:40.508Z,101716.59
2022-11-27T04:40:28.358Z,101719.03
2022-11-27T04:43:15.934Z,101719.84
2022-11-27T04:46:03.636Z,101724.88
2022-11-27T04:48:51.304Z,101723.19
2022-11-27T04:51:38.981Z,101731.53
2022-11-27T04:54:26.664Z,101728.94
2022-11-27T04:57:14.337Z,101724.66
2022-11-27T05:00:04.143Z,101727.94
2022-11-27T05:02:52.267Z,101733.78
2022-11-27T05:05:39.907Z,101733.00
2022-11-27T05:08:30.457Z,101737.16
2022-11-27T05:11:18.374Z,101737.13
2022-11-27T05:14:15.170Z,101736.25
2022-11-27T05:17:02.898Z,101732.75
2022-11-27T05:19:50.626Z,101731.00
2022-11-27T05:22:38.299Z,101732.75
2022-11-27T05:25:25.975Z,101737.03
2022-11-27T05:28:13.616Z,101733.75
2022-11-27T05:31:01.633Z,101737.09
2022-11-27T05:33:49.314Z,101737.13
2022-11-27T05:36:37.391Z,101740.56
2022-11-27T05:39:25.280Z,101743.16
2022-11-27T05:42:12.935Z,101748.25
2022-11-27T05:45:00.589Z,101746.50
2022-11-27T05:47:48.256Z,101746.44
2022-11-27T05:50:35.951Z,101749.63
2022-11-27T05:53:25.791Z,101748.69
2022-11-27T05:56:15.817Z,101746.09
2022-11-27T05:59:03.547Z,101754.72
2022-11-27T06:01:51.700Z,101758.88
2022-11-27T06:04:41.916Z,101751.13
2022-11-27T06:10:33.586Z,101750.88
2022-11-27T06:13:21.236Z,101749.13
2022-11-27T06:16:16.530Z,101755.06
2022-11-27T06:20:01.241Z,101752.41
2022-11-27T06:23:09.442Z,101753.38
2022-11-27T06:26:47.183Z,101753.13
2022-11-27T06:30:07.374Z,101743.63
2022-11-27T06:33:16.988Z,101743.47
2022-11-27T06:36:31.761Z,101756.84
2022-11-27T06:39:54.993Z,101746.41
2022-11-27T06:43:55.208Z,101745.44
2022-11-27T07:17:31.055Z,101769.28
2022-11-27T07:20:18.942Z,101768.38
2022-11-27T07:23:11.440Z,101765.72
2022-11-27T07:25:59.252Z,101775.63
2022-11-27T07:28:47.256Z,101761.06
2022-11-27T07:31:35.112Z,101763.50
2022-11-27T07:34:22.838Z,101759.13
2022-11-27T07:37:10.444Z,101753.06
2022-11-27T07:40:03.057Z,101749.50
2022-11-27T07:42:51.250Z,101757.59
2022-11-27T07:45:39.040Z,101759.28
2022-11-27T07:48:26.833Z,101752.31
2022-11-27T07:51:18.070Z,101754.00
2022-11-27T07:54:05.726Z,101755.66
2022-11-27T07:56:53.326Z,101753.19
2022-11-27T07:59:45.770Z,101750.53
2022-11-27T08:02:34.852Z,101755.41
2022-11-27T08:05:22.737Z,101750.25
2022-11-27T08:08:11.421Z,101751.88
2022-11-27T08:11:00.568Z,101750.84
2022-11-27T08:13:51.018Z,101758.31
2022-11-27T08:16:40.424Z,101756.59
2022-11-27T08:19:30.004Z,101753.84
2022-11-27T08:22:27.465Z,101756.03
2022-11-27T09:54:46.744Z,101731.59
2022-11-27T09:57:41.749Z,101732.38
2022-11-27T10:00:29.555Z,101729.59
2022-11-27T10:03:24.112Z,101736.69
2022-11-27T10:06:57.089Z,101726.22
2022-11-27T10:09:50.707Z,101733.75
2022-11-27T10:13:00.407Z,101728.03
2022-11-27T10:16:02.981Z,101734.06
2022-11-27T10:19:14.037Z,101726.16
2022-11-27T10:22:19.602Z,101733.22
2022-11-27T10:25:39.579Z,101733.16
2022-11-27T10:28:36.652Z,101743.16
2022-11-27T10:31:43.141Z,101739.44
2022-11-27T10:34:38.749Z,101742.56
2022-11-27T10:37:30.575Z,101739.91
2022-11-27T10:40:26.554Z,101743.31
2022-11-27T10:43:20.183Z,101740.63
2022-11-27T10:46:15.412Z,101745.75
2022-11-27T10:49:03.196Z,101734.97
2022-11-27T10:51:50.924Z,101745.59
2022-11-27T10:54:39.819Z,101737.69
2022-11-27T10:57:53.203Z,101747.09
2022-11-27T11:00:40.867Z,101744.00
2022-11-27T11:03:28.583Z,101744.00
2022-11-27T11:06:22.299Z,101746.50
2022-11-27T11:09:18.110Z,101739.00
2022-11-27T11:12:21.313Z,101740.13
2022-11-27T11:15:11.482Z,101737.44
2022-11-27T11:17:59.155Z,101747.19
2022-11-27T11:20:56.440Z,101742.53
2022-11-27T11:23:47.043Z,101748.66
2022-11-27T11:26:38.326Z,101754.97
2022-11-27T11:29:31.087Z,101759.47
2022-11-27T11:32:29.749Z,101749.28
2022-11-27T11:35:32.268Z,101745.81
2022-11-27T11:38:32.887Z,101747.84
2022-11-27T11:41:21.001Z,101743.63
2022-11-27T11:44:23.916Z,101734.06
2022-11-27T11:47:18.992Z,101739.84
2022-11-27T11:50:13.446Z,101742.34
2022-11-27T11:53:22.595Z,101744.81
2022-11-27T11:56:35.255Z,101749.91
2022-11-27T11:59:39.621Z,101760.22
2022-11-27T12:03:08.356Z,101763.19
2022-11-27T12:06:17.937Z,101757.06
2022-11-27T12:09:46.427Z,101766.81
2022-11-27T12:12:48.197Z,101757.69
2022-11-27T12:16:14.681Z,101761.06
2022-11-27T12:19:20.200Z,101764.41
2022-11-27T12:22:23.235Z,101764.41
2022-11-27T12:25:33.659Z,101766.19
2022-11-27T12:28:30.443Z,101776.66
2022-11-27T12:31:46.206Z,101779.22
2022-11-27T12:34:44.204Z,101773.78
2022-11-27T12:37:31.948Z,101785.72
2022-11-27T12:40:34.109Z,101777.06
2022-11-27T12:43:25.699Z,101780.75
2022-11-27T12:46:24.210Z,101789.50
2022-11-27T12:49:26.023Z,101788.84
2022-11-27T12:52:22.538Z,101788.97
2022-11-27T12:55:21.181Z,101793.28
2022-11-27T12:58:41.278Z,101798.50
2022-11-27T13:01:34.307Z,101802.88
2022-11-27T13:04:37.185Z,101792.03
2022-11-27T13:07:40.028Z,101801.47
2022-11-27T13:10:32.311Z,101797.22
2022-11-27T13:13:34.224Z,101798.91
2022-11-27T13:16:41.259Z,101792.03
2022-11-27T13:19:43.828Z,101789.53
2022-11-27T13:22:36.130Z,101785.34
2022-11-27T13:25:25.394Z,101791.31
2022-11-27T13:28:41.767Z,101782.81
2022-11-27T13:31:33.183Z,101790.41
2022-11-27T13:34:24.327Z,101776.00
2022-11-27T13:37:34.140Z,101790.50
2022-11-27T13:40:46.709Z,101784.69
2022-11-27T13:43:43.106Z,101791.56
2022-11-27T13:46:32.278Z,101784.84
2022-11-27T13:49:32.930Z,101795.94
2022-11-27T13:52:21.316Z,101790.81
2022-11-27T13:55:09.987Z,101800.22
2022-11-27T13:58:00.104Z,101791.66
2022-11-27T14:00:47.761Z,101793.44
2022-11-27T14:03:36.611Z,101805.31
2022-11-27T14:06:29.076Z,101793.53
2022-11-27T14:09:16.755Z,101797.78
2022-11-27T14:12:16.971Z,101796.78
2022-11-27T14:15:25.751Z,101800.97
2022-11-27T14:18:21.927Z,101802.66
2022-11-27T14:21:26.216Z,101799.22
2022-11-27T14:24:45.036Z,101805.03
2022-11-27T14:27:36.630Z,101811.81
2022-11-27T14:30:57.741Z,101808.47
2022-11-27T14:34:13.442Z,101807.88
2022-11-27T14:36:53.892Z,101796.22
2022-11-27T14:39:41.647Z,101803.81
2022-11-27T14:42:32.991Z,101807.94
2022-11-27T14:45:23.950Z,101813.84
2022-11-27T14:48:42.571Z,101813.75
2022-11-27T14:51:33.598Z,101810.44
2022-11-27T14:54:28.618Z,101814.69
2022-11-27T14:57:35.226Z,101803.81
2022-11-27T15:00:27.319Z,101806.53
2022-11-27T15:03:18.168Z,101805.78
2022-11-27T15:06:07.797Z,101805.78
2022-11-27T15:09:23.634Z,101800.63
2022-11-27T15:12:16.771Z,101800.47
2022-11-27T15:15:27.668Z,101803.81
2022-11-27T15:18:22.851Z,101808.19
2022-11-27T15:21:13.376Z,101803.00
2022-11-27T15:24:01.398Z,101798.16
2022-11-27T15:26:49.848Z,101791.66
2022-11-27T15:29:38.197Z,101796.00
2022-11-27T15:32:27.784Z,101786.78
2022-11-27T15:35:16.110Z,101801.38
2022-11-27T15:38:10.884Z,101799.81
2022-11-27T15:41:00.876Z,101800.66
2022-11-27T15:43:48.584Z,101799.72
2022-11-27T15:46:36.299Z,101811.50
2022-11-27T15:49:25.111Z,101805.50
2022-11-27T15:52:13.016Z,101808.84
2022-11-27T15:55:03.086Z,101802.16
2022-11-27T15:57:50.911Z,101801.47
2022-11-27T16:00:39.962Z,101811.72
2022-11-27T16:03:28.558Z,101815.97
2022-11-27T16:06:16.462Z,101816.75
2022-11-27T16:09:05.121Z,101815.00
2022-11-27T16:11:53.148Z,101831.91
2022-11-27T16:14:41.005Z,101817.41
2022-11-27T16:17:28.967Z,101821.69
2022-11-27T16:20:18.703Z,101816.88
2022-11-27T16:23:16.118Z,101820.31
2022-11-27T16:26:04.492Z,101821.03
2022-11-27T16:28:52.221Z,101820.91
2022-11-27T16:31:40.497Z,101826.13
2022-11-27T16:34:28.303Z,101835.56
2022-11-27T16:37:18.501Z,101830.63
2022-11-27T16:40:09.517Z,101839.19
2022-11-27T16:43:01.497Z,101839.13
2022-11-27T16:45:54.844Z,101825.47
2022-11-27T16:48:50.108Z,101828.72
2022-11-27T16:52:45.757Z,101827.09
2022-11-27T16:56:52.198Z,101830.38
2022-11-27T16:59:41.413Z,101825.50
2022-11-27T17:03:15.160Z,101839.84
2022-11-27T17:10:55.904Z,101831.47
2022-11-27T17:13:44.825Z,101839.78
2022-11-27T17:16:34.118Z,101836.50
2022-11-27T17:19:27.277Z,101833.25
2022-11-27T17:22:19.951Z,101831.38
2022-11-27T17:25:18.330Z,101835.69
2022-11-27T17:28:07.976Z,101833.25
2022-11-27T17:30:58.432Z,101828.97
2022-11-27T17:33:48.344Z,101825.69
2022-11-27T17:36:42.075Z,101827.44
2022-11-27T17:39:38.781Z,101835.91
2022-11-27T17:42:27.988Z,101825.81
2022-11-27T17:45:25.773Z,101830.91
2022-11-27T17:48:16.577Z,101828.31
2022-11-27T17:51:07.177Z,101841.78
2022-11-27T17:54:05.481Z,101835.69
2022-11-27T17:57:21.113Z,101841.53
2022-11-27T18:00:40.248Z,101843.13
2022-11-27T18:04:01.474Z,101848.28
2022-11-27T18:06:52.744Z,101840.78
2022-11-27T18:09:56.340Z,101835.84
2022-11-27T18:12:52.263Z,101843.44
2022-11-27T18:15:45.184Z,101846.75
2022-11-27T18:18:35.504Z,101839.97
2022-11-27T18:21:31.173Z,101842.53
2022-11-27T18:24:23.540Z,101846.69
2022-11-27T18:27:15.494Z,101837.28
2022-11-27T18:30:05.893Z,101842.28
2022-11-27T18:33:11.388Z,101844.94
2022-11-27T18:36:01.004Z,101840.00
2022-11-27T18:39:14.649Z,101840.94
2022-11-27T18:42:05.343Z,101849.28
2022-11-27T18:44:54.518Z,101839.09
2022-11-27T18:47:45.885Z,101847.66
2022-11-27T18:50:36.595Z,101836.03
2022-11-27T18:53:24.496Z,101839.50
2022-11-27T18:56:40.146Z,101840.41
2022-11-27T18:59:34.118Z,101836.25
2022-11-27T19:02:27.127Z,101849.00
2022-11-27T19:05:17.919Z,101843.97
2022-11-27T19:08:08.998Z,101852.31
2022-11-27T19:11:01.621Z,101856.50
2022-11-27T19:13:50.949Z,101859.81
2022-11-27T19:16:45.456Z,101864.19
2022-11-27T19:20:04.723Z,101866.84
2022-11-27T19:22:41.697Z,101858.34
2022-11-27T19:25:29.483Z,101863.41
2022-11-27T19:28:17.323Z,101858.50
2022-11-27T19:31:07.363Z,101859.34
2022-11-27T19:33:58.747Z,101862.66
2022-11-27T19:36:46.634Z,101862.56
2022-11-27T19:39:34.229Z,101865.00
2022-11-27T19:42:21.958Z,101860.66
2022-11-27T19:45:10.474Z,101866.53
2022-11-27T19:47:58.103Z,101864.84
2022-11-27T19:50:46.396Z,101863.34
2022-11-27T19:53:34.427Z,101857.47
2022-11-27T19:56:22.087Z,101859.94
2022-11-27T19:59:11.139Z,101864.16
2022-11-27T20:02:00.586Z,101870.81
2022-11-27T20:04:49.516Z,101862.34
2022-11-27T20:07:37.682Z,101872.59
2022-11-27T20:10:25.623Z,101865.00
2022-11-27T20:13:13.335Z,101870.19
2022-11-27T20:16:01.402Z,101868.50
2022-11-27T20:18:49.298Z,101870.16
2022-11-27T20:21:39.487Z,101871.78
2022-11-27T20:24:27.418Z,101883.66
2022-11-27T20:27:15.208Z,101882.03
2022-11-27T20:30:05.138Z,101880.44
2022-11-27T20:32:54.676Z,101890.59
2022-11-27T20:35:42.970Z,101888.84
2022-11-27T20:38:30.695Z,101893.13
2022-11-27T20:41:20.576Z,101883.88
2022-11-27T20:44:13.717Z,101887.38
2022-11-27T20:47:01.375Z,101882.34
2022-11-27T20:49:49.018Z,101889.84
2022-11-27T20:52:36.646Z,101889.84
2022-11-27T20:55:24.516Z,101891.44
2022-11-27T20:58:12.660Z,101902.44
2022-11-27T21:01:00.311Z,101895.84
2022-11-27T21:03:50.618Z,101894.16
2022-11-27T21:06:43.712Z,101893.34
2022-11-27T21:09:32.192Z,101894.13
2022-11-27T21:12:19.822Z,101898.19
2022-11-27T21:15:08.247Z,101899.84
2022-11-27T21:17:55.845Z,101889.69
2022-11-27T21:20:43.649Z,101906.69
2022-11-27T21:23:31.326Z,101902.41
2022-11-27T21:26:19.081Z,101902.38
2022-11-27T21:29:07.358Z,101900.78
2022-11-27T21:31:55.400Z,101902.44
2022-11-27T21:34:43.647Z,101897.28
2022-11-27T21:37:31.670Z,101907.47
2022-11-27T21:40:19.538Z,101890.59
2022-11-27T21:43:07.703Z,101903.25
2022-11-27T21:45:55.790Z,101900.84
2022-11-27T21:48:45.044Z,101900.94
2022-11-27T21:51:32.677Z,101906.03
2022-11-27T21:54:24.482Z,101905.94
2022-11-27T21:57:12.149Z,101909.28
2022-11-27T21:59:59.928Z,101915.16
2022-11-27T22:02:47.656Z,101910.03
2022-11-27T22:05:35.400Z,101911.66
2022-11-27T22:08:22.959Z,101909.97
2022-11-27T22:11:13.213Z,101910.75
2022-11-27T22:14:04.598Z,101908.22
2022-11-27T22:16:53.272Z,101914.19
2022-11-27T22:19:42.423Z,101921.09
2022-11-27T22:22:30.016Z,101912.63
2022-11-27T22:25:18.056Z,101910.19
2022-11-27T22:28:05.781Z,101910.94
2022-11-27T22:30:53.610Z,101914.25
2022-11-27T22:33:42.426Z,101920.97
2022-11-27T22:36:34.780Z,101907.38
2022-11-27T22:39:22.415Z,101910.03
2022-11-27T22:42:10.391Z,101904.13
2022-11-27T22:44:58.136Z,101905.09
2022-11-27T22:47:45.698Z,101905.88
2022-11-27T22:50:34.024Z,101905.00
2022-11-27T22:53:21.738Z,101911.69
2022-11-27T22:56:12.060Z,101914.03
2022-11-27T22:59:24.509Z,101919.03
2022-11-27T23:02:08.616Z,101925.84
2022-11-27T23:04:56.228Z,101923.25
2022-11-27T23:07:44.059Z,101918.94
2022-11-27T23:10:31.774Z,101923.13
2022-11-27T23:13:19.862Z,101926.53
2022-11-27T23:16:08.267Z,101924.13
2022-11-27T23:18:56.008Z,101928.59
2022-11-27T23:21:43.812Z,101927.75
2022-11-27T23:24:31.411Z,101926.91
2022-11-27T23:27:19.089Z,101927.00
2022-11-27T23:30:07.570Z,101931.28
2022-11-27T23:32:55.231Z,101932.97
2022-11-27T23:35:42.891Z,101936.34
2022-11-27T23:38:30.541Z,101943.09
2022-11-27T23:41:21.887Z,101938.78
2022-11-27T23:44:09.813Z,101940.38
2022-11-27T23:46:57.378Z,101938.53
2022-11-27T23:49:45.044Z,101938.63
2022-11-27T23:52:32.837Z,101940.25
2022-11-27T23:55:20.649Z,101938.53
2022-11-27T23:58:08.310Z,101948.03
